sensor_id;sensor_type;location;lat;lon;timestamp;pressure;altitude;pressure_sealevel;temperature;humidity
45523;BME280;31254;51.680;5.394;2023-05-16T00:01:43;101945.75;;;10.74;79.54
45523;BME280;31254;51.680;5.394;2023-05-16T00:04:10;101959.88;;;10.79;79.09
45523;BME280;31254;51.680;5.394;2023-05-16T00:06:37;101952.81;;;10.77;79.40
45523;BME280;31254;51.680;5.394;2023-05-16T00:09:04;101956.06;;;10.71;79.60
45523;BME280;31254;51.680;5.394;2023-05-16T00:11:34;101952.06;;;10.64;79.40
45523;BME280;31254;51.680;5.394;2023-05-16T00:14:00;101948.09;;;10.56;79.78
45523;BME280;31254;51.680;5.394;2023-05-16T00:16:28;101927.75;;;10.38;79.97
45523;BME280;31254;51.680;5.394;2023-05-16T00:18:55;101954.53;;;10.44;79.62
45523;BME280;31254;51.680;5.394;2023-05-16T00:21:27;101953.69;;;10.43;79.65
45523;BME280;31254;51.680;5.394;2023-05-16T00:23:53;101966.94;;;10.48;79.61
45523;BME280;31254;51.680;5.394;2023-05-16T00:26:23;101934.44;;;10.34;79.19
45523;BME280;31254;51.680;5.394;2023-05-16T00:28:52;101966.31;;;10.45;79.46
45523;BME280;31254;51.680;5.394;2023-05-16T00:31:19;101960.22;;;10.41;79.58
45523;BME280;31254;51.680;5.394;2023-05-16T00:33:46;101944.56;;;10.32;79.11
45523;BME280;31254;51.680;5.394;2023-05-16T00:36:13;101959.50;;;10.39;79.55
45523;BME280;31254;51.680;5.394;2023-05-16T00:38:40;101968.16;;;10.33;79.33
45523;BME280;31254;51.680;5.394;2023-05-16T00:41:06;101938.69;;;10.14;79.33
45523;BME280;31254;51.680;5.394;2023-05-16T00:43:33;101945.75;;;10.05;79.83
45523;BME280;31254;51.680;5.394;2023-05-16T00:46:00;101955.91;;;10.03;79.84
45523;BME280;31254;51.680;5.394;2023-05-16T00:48:28;101962.47;;;10.00;80.08
45523;BME280;31254;51.680;5.394;2023-05-16T00:50:55;101956.00;;;9.90;80.38
45523;BME280;31254;51.680;5.394;2023-05-16T00:53:25;101960.44;;;9.91;80.47
45523;BME280;31254;51.680;5.394;2023-05-16T00:55:52;101961.44;;;9.90;80.27
45523;BME280;31254;51.680;5.394;2023-05-16T00:58:20;101962.31;;;9.91;80.38
45523;BME280;31254;51.680;5.394;2023-05-16T01:00:51;101963.03;;;9.93;80.80
45523;BME280;31254;51.680;5.394;2023-05-16T01:03:21;101974.97;;;9.92;80.47
45523;BME280;31254;51.680;5.394;2023-05-16T01:05:48;101961.06;;;9.83;80.57
45523;BME280;31254;51.680;5.394;2023-05-16T01:08:18;101966.34;;;9.74;80.61
45523;BME280;31254;51.680;5.394;2023-05-16T01:13:33;101962.03;;;9.58;81.03
45523;BME280;31254;51.680;5.394;2023-05-16T01:18:58;101961.81;;;9.37;81.46
45523;BME280;31254;51.680;5.394;2023-05-16T01:22:02;101980.66;;;9.40;81.39
45523;BME280;31254;51.680;5.394;2023-05-16T01:25:01;101975.31;;;9.39;81.09
45523;BME280;31254;51.680;5.394;2023-05-16T01:27:26;101965.88;;;9.31;81.18
45523;BME280;31254;51.680;5.394;2023-05-16T01:30:12;101972.41;;;9.29;80.97
45523;BME280;31254;51.680;5.394;2023-05-16T01:32:39;101969.72;;;9.16;81.17
45523;BME280;31254;51.680;5.394;2023-05-16T01:35:11;101953.31;;;9.05;81.15
45523;BME280;31254;51.680;5.394;2023-05-16T01:38:29;101965.31;;;9.02;81.50
45523;BME280;31254;51.680;5.394;2023-05-16T01:40:45;101970.88;;;9.01;82.12
45523;BME280;31254;51.680;5.394;2023-05-16T01:43:16;101981.88;;;8.99;82.17
45523;BME280;31254;51.680;5.394;2023-05-16T01:46:01;101984.03;;;8.94;81.73
45523;BME280;31254;51.680;5.394;2023-05-16T01:48:35;101984.63;;;8.86;82.09
45523;BME280;31254;51.680;5.394;2023-05-16T01:51:08;101971.78;;;8.75;81.77
45523;BME280;31254;51.680;5.394;2023-05-16T01:53:37;101985.25;;;8.77;82.35
45523;BME280;31254;51.680;5.394;2023-05-16T01:56:10;101998.13;;;8.75;82.57
45523;BME280;31254;51.680;5.394;2023-05-16T01:58:41;101985.16;;;8.66;82.64
45523;BME280;31254;51.680;5.394;2023-05-16T02:01:09;101990.06;;;8.60;82.38
45523;BME280;31254;51.680;5.394;2023-05-16T02:03:39;101997.91;;;8.65;82.67
45523;BME280;31254;51.680;5.394;2023-05-16T02:06:06;101992.69;;;8.62;82.52
45523;BME280;31254;51.680;5.394;2023-05-16T02:08:37;101982.22;;;8.56;82.65
45523;BME280;31254;51.680;5.394;2023-05-16T02:11:04;101994.19;;;8.53;82.54
45523;BME280;31254;51.680;5.394;2023-05-16T02:13:31;101999.09;;;8.48;82.51
45523;BME280;31254;51.680;5.394;2023-05-16T02:15:58;101999.94;;;8.49;82.29
45523;BME280;31254;51.680;5.394;2023-05-16T02:18:25;102001.50;;;8.53;82.49
45523;BME280;31254;51.680;5.394;2023-05-16T02:20:53;102002.13;;;8.56;82.46
45523;BME280;31254;51.680;5.394;2023-05-16T02:23:20;102007.69;;;8.55;82.37
45523;BME280;31254;51.680;5.394;2023-05-16T02:25:47;102010.63;;;8.52;82.66
45523;BME280;31254;51.680;5.394;2023-05-16T02:28:14;102015.41;;;8.48;82.43
45523;BME280;31254;51.680;5.394;2023-05-16T02:30:41;101996.44;;;8.34;82.59
45523;BME280;31254;51.680;5.394;2023-05-16T02:33:08;102015.16;;;8.38;82.55
45523;BME280;31254;51.680;5.394;2023-05-16T02:35:36;102011.88;;;8.33;82.88
45523;BME280;31254;51.680;5.394;2023-05-16T02:38:02;102019.28;;;8.31;83.32
45523;BME280;31254;51.680;5.394;2023-05-16T02:40:29;102015.03;;;8.27;83.24
45523;BME280;31254;51.680;5.394;2023-05-16T02:42:57;102017.09;;;8.23;83.25
45523;BME280;31254;51.680;5.394;2023-05-16T02:45:23;102024.28;;;8.24;82.88
45523;BME280;31254;51.680;5.394;2023-05-16T02:47:51;101997.28;;;8.09;83.14
45523;BME280;31254;51.680;5.394;2023-05-16T02:50:18;102032.84;;;8.18;83.13
45523;BME280;31254;51.680;5.394;2023-05-16T02:52:44;102023.06;;;8.16;83.20
45523;BME280;31254;51.680;5.394;2023-05-16T02:55:12;102022.50;;;8.11;83.39
45523;BME280;31254;51.680;5.394;2023-05-16T02:57:47;102027.09;;;8.10;83.70
45523;BME280;31254;51.680;5.394;2023-05-16T03:00:16;102031.06;;;8.04;83.47
45523;BME280;31254;51.680;5.394;2023-05-16T03:02:44;102025.84;;;8.01;83.21
45523;BME280;31254;51.680;5.394;2023-05-16T03:05:11;102027.69;;;8.01;83.24
45523;BME280;31254;51.680;5.394;2023-05-16T03:07:38;102015.38;;;7.95;83.53
45523;BME280;31254;51.680;5.394;2023-05-16T03:10:05;102047.38;;;8.04;83.13
45523;BME280;31254;51.680;5.394;2023-05-16T03:12:35;102044.00;;;8.01;83.15
45523;BME280;31254;51.680;5.394;2023-05-16T03:15:02;102037.25;;;7.94;83.26
45523;BME280;31254;51.680;5.394;2023-05-16T03:17:29;102037.34;;;7.92;83.03
45523;BME280;31254;51.680;5.394;2023-05-16T03:19:56;102055.28;;;7.95;83.30
45523;BME280;31254;51.680;5.394;2023-05-16T03:22:25;102015.97;;;7.73;82.99
45523;BME280;31254;51.680;5.394;2023-05-16T03:24:52;102049.19;;;7.91;83.09
45523;BME280;31254;51.680;5.394;2023-05-16T03:27:22;102054.81;;;7.88;83.24
45523;BME280;31254;51.680;5.394;2023-05-16T03:29:49;102035.75;;;7.75;83.35
45523;BME280;31254;51.680;5.394;2023-05-16T03:32:16;102053.31;;;7.84;83.05
45523;BME280;31254;51.680;5.394;2023-05-16T03:34:45;102041.19;;;7.75;83.32
45523;BME280;31254;51.680;5.394;2023-05-16T03:37:14;102049.91;;;7.80;83.50
45523;BME280;31254;51.680;5.394;2023-05-16T03:39:42;102045.56;;;7.78;83.50
45523;BME280;31254;51.680;5.394;2023-05-16T03:42:08;102048.06;;;7.81;83.51
45523;BME280;31254;51.680;5.394;2023-05-16T03:44:35;102029.09;;;7.66;82.80
45523;BME280;31254;51.680;5.394;2023-05-16T03:47:05;102041.50;;;7.71;83.42
45523;BME280;31254;51.680;5.394;2023-05-16T03:49:35;102052.16;;;7.74;83.44
45523;BME280;31254;51.680;5.394;2023-05-16T03:52:05;102063.59;;;7.79;83.24
45523;BME280;31254;51.680;5.394;2023-05-16T03:54:32;102059.16;;;7.78;83.89
45523;BME280;31254;51.680;5.394;2023-05-16T03:56:59;102067.28;;;7.78;83.67
45523;BME280;31254;51.680;5.394;2023-05-16T03:59:28;102067.00;;;7.82;83.08
45523;BME280;31254;51.680;5.394;2023-05-16T04:01:58;102075.03;;;7.84;83.62
45523;BME280;31254;51.680;5.394;2023-05-16T04:04:24;102081.03;;;7.89;83.28
45523;BME280;31254;51.680;5.394;2023-05-16T04:06:52;102082.56;;;7.93;83.31
45523;BME280;31254;51.680;5.394;2023-05-16T04:09:19;102074.41;;;7.93;83.23
45523;BME280;31254;51.680;5.394;2023-05-16T04:11:47;102080.19;;;8.01;82.83
45523;BME280;31254;51.680;5.394;2023-05-16T04:14:15;102077.38;;;8.03;82.94
45523;BME280;31254;51.680;5.394;2023-05-16T04:16:42;102084.25;;;8.09;82.58
45523;BME280;31254;51.680;5.394;2023-05-16T04:19:09;102085.03;;;8.11;82.64
45523;BME280;31254;51.680;5.394;2023-05-16T04:21:36;102076.00;;;8.10;82.59
45523;BME280;31254;51.680;5.394;2023-05-16T04:24:06;102064.94;;;8.13;82.77
45523;BME280;31254;51.680;5.394;2023-05-16T04:26:35;102096.28;;;8.32;82.64
45523;BME280;31254;51.680;5.394;2023-05-16T04:29:02;102072.13;;;8.27;82.36
45523;BME280;31254;51.680;5.394;2023-05-16T04:31:29;102095.66;;;8.41;82.34
45523;BME280;31254;51.680;5.394;2023-05-16T04:33:56;102088.72;;;8.50;82.13
45523;BME280;31254;51.680;5.394;2023-05-16T04:36:27;102086.88;;;8.50;82.40
45523;BME280;31254;51.680;5.394;2023-05-16T04:38:58;102098.13;;;8.58;82.27
45523;BME280;31254;51.680;5.394;2023-05-16T04:41:24;102097.34;;;8.69;81.65
45523;BME280;31254;51.680;5.394;2023-05-16T04:43:51;102097.91;;;8.74;81.17
45523;BME280;31254;51.680;5.394;2023-05-16T04:46:21;102092.25;;;8.77;80.70
45523;BME280;31254;51.680;5.394;2023-05-16T04:48:48;102105.00;;;9.03;80.36
45523;BME280;31254;51.680;5.394;2023-05-16T04:51:14;102100.84;;;9.23;79.53
45523;BME280;31254;51.680;5.394;2023-05-16T04:53:41;102099.72;;;10.83;74.94
45523;BME280;31254;51.680;5.394;2023-05-16T04:56:07;102108.34;;;12.87;68.57
45523;BME280;31254;51.680;5.394;2023-05-16T04:58:37;102102.22;;;14.17;64.59
45523;BME280;31254;51.680;5.394;2023-05-16T05:01:04;102102.81;;;14.89;62.54
45523;BME280;31254;51.680;5.394;2023-05-16T05:03:31;102105.22;;;15.77;60.00
45523;BME280;31254;51.680;5.394;2023-05-16T05:05:59;102097.97;;;16.39;58.02
45523;BME280;31254;51.680;5.394;2023-05-16T05:08:27;102110.50;;;17.22;56.25
45523;BME280;31254;51.680;5.394;2023-05-16T05:10:55;102103.69;;;17.69;54.66
45523;BME280;31254;51.680;5.394;2023-05-16T05:13:21;102103.47;;;18.13;53.88
45523;BME280;31254;51.680;5.394;2023-05-16T05:15:49;102100.78;;;18.79;52.33
45523;BME280;31254;51.680;5.394;2023-05-16T05:18:17;102110.75;;;19.13;51.31
45523;BME280;31254;51.680;5.394;2023-05-16T05:20:44;102108.44;;;19.89;49.83
45523;BME280;31254;51.680;5.394;2023-05-16T05:23:11;102101.22;;;20.34;48.35
45523;BME280;31254;51.680;5.394;2023-05-16T05:25:38;102106.06;;;20.55;47.80
45523;BME280;31254;51.680;5.394;2023-05-16T05:28:06;102112.44;;;20.87;47.15
45523;BME280;31254;51.680;5.394;2023-05-16T05:30:35;102096.63;;;22.07;45.06
45523;BME280;31254;51.680;5.394;2023-05-16T05:33:01;102097.78;;;22.56;43.92
45523;BME280;31254;51.680;5.394;2023-05-16T05:35:28;102102.31;;;21.99;44.13
45523;BME280;31254;51.680;5.394;2023-05-16T05:37:55;102110.72;;;22.05;44.25
45523;BME280;31254;51.680;5.394;2023-05-16T05:40:22;102089.59;;;22.48;43.38
45523;BME280;31254;51.680;5.394;2023-05-16T05:42:51;102105.81;;;23.15;42.46
45523;BME280;31254;51.680;5.394;2023-05-16T05:45:18;102106.91;;;23.98;40.64
45523;BME280;31254;51.680;5.394;2023-05-16T05:47:44;102111.94;;;24.42;39.94
45523;BME280;31254;51.680;5.394;2023-05-16T05:50:13;102115.06;;;24.06;40.08
45523;BME280;31254;51.680;5.394;2023-05-16T05:52:43;102109.56;;;24.39;39.21
45523;BME280;31254;51.680;5.394;2023-05-16T05:55:12;102112.09;;;24.07;39.43
45523;BME280;31254;51.680;5.394;2023-05-16T05:57:39;102113.78;;;24.08;39.39
45523;BME280;31254;51.680;5.394;2023-05-16T06:00:06;102118.53;;;24.21;39.02
45523;BME280;31254;51.680;5.394;2023-05-16T06:02:35;102118.44;;;24.56;38.21
45523;BME280;31254;51.680;5.394;2023-05-16T06:05:02;102119.00;;;24.32;38.54
45523;BME280;31254;51.680;5.394;2023-05-16T06:07:32;102126.44;;;24.11;38.44
45523;BME280;31254;51.680;5.394;2023-05-16T06:09:58;102119.06;;;24.58;37.46
45523;BME280;31254;51.680;5.394;2023-05-16T06:12:30;102127.09;;;24.20;38.01
45523;BME280;31254;51.680;5.394;2023-05-16T06:14:57;102119.44;;;24.35;37.70
45523;BME280;31254;51.680;5.394;2023-05-16T06:17:24;102134.34;;;25.29;35.97
45523;BME280;31254;51.680;5.394;2023-05-16T06:19:51;102137.63;;;25.78;35.44
45523;BME280;31254;51.680;5.394;2023-05-16T06:22:18;102134.84;;;25.78;35.20
45523;BME280;31254;51.680;5.394;2023-05-16T06:24:44;102135.66;;;25.92;35.21
45523;BME280;31254;51.680;5.394;2023-05-16T06:27:11;102138.75;;;25.64;34.97
45523;BME280;31254;51.680;5.394;2023-05-16T06:29:38;102136.91;;;25.31;35.11
45523;BME280;31254;51.680;5.394;2023-05-16T06:32:05;102141.84;;;24.82;35.50
45523;BME280;31254;51.680;5.394;2023-05-16T06:34:32;102150.34;;;24.40;35.56
45523;BME280;31254;51.680;5.394;2023-05-16T06:36:58;102138.81;;;25.44;34.08
45523;BME280;31254;51.680;5.394;2023-05-16T06:39:27;102136.91;;;25.24;34.31
45523;BME280;31254;51.680;5.394;2023-05-16T06:41:54;102148.69;;;25.40;34.32
45523;BME280;31254;51.680;5.394;2023-05-16T06:44:22;102136.13;;;25.82;33.16
45523;BME280;31254;51.680;5.394;2023-05-16T06:46:49;102155.38;;;25.45;33.76
45523;BME280;31254;51.680;5.394;2023-05-16T06:49:16;102148.22;;;24.49;34.95
45523;BME280;31254;51.680;5.394;2023-05-16T06:51:43;102151.44;;;24.53;35.12
45523;BME280;31254;51.680;5.394;2023-05-16T06:54:10;102143.38;;;24.09;35.65
45523;BME280;31254;51.680;5.394;2023-05-16T06:56:37;102153.97;;;23.16;36.77
45523;BME280;31254;51.680;5.394;2023-05-16T06:59:04;102149.31;;;23.58;36.02
45523;BME280;31254;51.680;5.394;2023-05-16T07:01:31;102147.25;;;23.67;35.72
45523;BME280;31254;51.680;5.394;2023-05-16T07:03:57;102153.88;;;24.01;35.02
45523;BME280;31254;51.680;5.394;2023-05-16T07:06:24;102147.47;;;23.72;35.02
45523;BME280;31254;51.680;5.394;2023-05-16T07:09:00;102150.06;;;23.39;35.15
45523;BME280;31254;51.680;5.394;2023-05-16T07:11:27;102156.66;;;24.01;34.72
45523;BME280;31254;51.680;5.394;2023-05-16T07:13:54;102152.38;;;24.12;34.73
45523;BME280;31254;51.680;5.394;2023-05-16T07:16:23;102156.75;;;24.41;33.45
45523;BME280;31254;51.680;5.394;2023-05-16T07:18:56;102167.78;;;23.66;34.62
45523;BME280;31254;51.680;5.394;2023-05-16T07:21:27;102172.78;;;22.49;36.76
45523;BME280;31254;51.680;5.394;2023-05-16T07:23:54;102164.44;;;23.77;34.76
45523;BME280;31254;51.680;5.394;2023-05-16T07:26:23;102164.41;;;24.05;34.33
45523;BME280;31254;51.680;5.394;2023-05-16T07:28:52;102165.13;;;24.41;33.55
45523;BME280;31254;51.680;5.394;2023-05-16T07:31:19;102169.66;;;23.24;34.57
45523;BME280;31254;51.680;5.394;2023-05-16T07:33:46;102175.16;;;22.16;36.02
45523;BME280;31254;51.680;5.394;2023-05-16T07:36:14;102200.28;;;20.32;38.92
45523;BME280;31254;51.680;5.394;2023-05-16T07:38:43;102180.25;;;19.90;40.41
45523;BME280;31254;51.680;5.394;2023-05-16T07:41:10;102176.63;;;20.21;40.55
45523;BME280;31254;51.680;5.394;2023-05-16T07:43:37;102179.81;;;20.41;40.30
45523;BME280;31254;51.680;5.394;2023-05-16T07:46:06;102177.28;;;18.70;43.30
45523;BME280;31254;51.680;5.394;2023-05-16T07:48:35;102185.19;;;17.89;44.75
45523;BME280;31254;51.680;5.394;2023-05-16T07:51:02;102198.94;;;16.85;46.46
45523;BME280;31254;51.680;5.394;2023-05-16T07:53:28;102195.63;;;17.43;45.51
45523;BME280;31254;51.680;5.394;2023-05-16T07:55:55;102178.94;;;20.72;39.21
45523;BME280;31254;51.680;5.394;2023-05-16T07:58:24;102186.13;;;19.23;41.59
45523;BME280;31254;51.680;5.394;2023-05-16T08:00:51;102181.22;;;18.43;42.98
45523;BME280;31254;51.680;5.394;2023-05-16T08:03:20;102180.41;;;20.28;39.51
45523;BME280;31254;51.680;5.394;2023-05-16T08:05:47;102182.13;;;20.84;37.57
45523;BME280;31254;51.680;5.394;2023-05-16T08:08:14;102182.16;;;21.37;36.94
45523;BME280;31254;51.680;5.394;2023-05-16T08:10:41;102185.59;;;21.39;36.01
45523;BME280;31254;51.680;5.394;2023-05-16T08:13:10;102165.41;;;21.30;36.29
45523;BME280;31254;51.680;5.394;2023-05-16T08:15:37;102144.50;;;21.58;35.55
45523;BME280;31254;51.680;5.394;2023-05-16T08:18:11;102174.31;;;20.02;38.22
45523;BME280;31254;51.680;5.394;2023-05-16T08:20:39;102185.56;;;18.54;40.65
45523;BME280;31254;51.680;5.394;2023-05-16T08:23:07;102184.47;;;18.30;41.46
45523;BME280;31254;51.680;5.394;2023-05-16T08:25:34;102185.56;;;18.54;41.32
45523;BME280;31254;51.680;5.394;2023-05-16T08:28:01;102205.97;;;17.76;43.32
45523;BME280;31254;51.680;5.394;2023-05-16T08:30:31;102187.13;;;19.30;40.77
45523;BME280;31254;51.680;5.394;2023-05-16T08:33:00;102175.84;;;21.43;36.94
45523;BME280;31254;51.680;5.394;2023-05-16T08:35:30;102189.69;;;21.51;36.64
45523;BME280;31254;51.680;5.394;2023-05-16T08:37:57;102174.94;;;21.66;36.16
45523;BME280;31254;51.680;5.394;2023-05-16T08:40:27;102133.94;;;18.79;40.35
45523;BME280;31254;51.680;5.394;2023-05-16T08:42:54;102177.81;;;19.31;39.76
45523;BME280;31254;51.680;5.394;2023-05-16T08:45:22;102171.72;;;19.52;39.56
45523;BME280;31254;51.680;5.394;2023-05-16T08:47:53;102169.97;;;21.08;37.27
45523;BME280;31254;51.680;5.394;2023-05-16T08:50:23;102162.47;;;21.77;35.70
45523;BME280;31254;51.680;5.394;2023-05-16T08:52:51;102172.84;;;21.68;35.36
45523;BME280;31254;51.680;5.394;2023-05-16T08:55:20;102174.16;;;21.87;35.66
45523;BME280;31254;51.680;5.394;2023-05-16T08:57:53;102178.53;;;19.17;40.99
45523;BME280;31254;51.680;5.394;2023-05-16T09:00:20;102174.03;;;18.07;43.33
45523;BME280;31254;51.680;5.394;2023-05-16T09:02:48;102172.94;;;17.58;44.59
45523;BME280;31254;51.680;5.394;2023-05-16T09:05:16;102182.78;;;18.37;43.54
45523;BME280;31254;51.680;5.394;2023-05-16T09:07:44;102175.75;;;18.00;44.44
45523;BME280;31254;51.680;5.394;2023-05-16T09:10:11;102194.34;;;17.11;45.16
45523;BME280;31254;51.680;5.394;2023-05-16T09:12:39;102178.16;;;16.36;46.25
45523;BME280;31254;51.680;5.394;2023-05-16T09:15:09;102195.88;;;16.06;46.17
45523;BME280;31254;51.680;5.394;2023-05-16T09:17:44;102196.50;;;16.81;45.03
45523;BME280;31254;51.680;5.394;2023-05-16T09:20:13;102195.03;;;17.58;43.34
45523;BME280;31254;51.680;5.394;2023-05-16T09:22:50;102165.78;;;18.16;41.06
45523;BME280;31254;51.680;5.394;2023-05-16T09:25:19;102189.16;;;18.38;40.91
45523;BME280;31254;51.680;5.394;2023-05-16T09:27:58;102185.03;;;18.42;40.91
45523;BME280;31254;51.680;5.394;2023-05-16T09:30:32;102175.84;;;18.33;40.83
45523;BME280;31254;51.680;5.394;2023-05-16T09:33:00;102187.28;;;18.47;41.10
45523;BME280;31254;51.680;5.394;2023-05-16T09:35:27;102176.41;;;18.61;40.98
45523;BME280;31254;51.680;5.394;2023-05-16T09:37:57;102174.84;;;18.59;41.02
45523;BME280;31254;51.680;5.394;2023-05-16T09:40:24;102178.19;;;17.43;43.28
45523;BME280;31254;51.680;5.394;2023-05-16T09:43:05;102193.75;;;16.63;45.38
45523;BME280;31254;51.680;5.394;2023-05-16T09:45:35;102190.47;;;16.96;45.32
45523;BME280;31254;51.680;5.394;2023-05-16T09:48:06;102196.66;;;17.77;43.76
45523;BME280;31254;51.680;5.394;2023-05-16T09:50:34;102182.19;;;18.17;42.65
45523;BME280;31254;51.680;5.394;2023-05-16T09:53:02;102182.28;;;18.42;42.27
45523;BME280;31254;51.680;5.394;2023-05-16T09:55:29;102187.53;;;18.19;41.96
45523;BME280;31254;51.680;5.394;2023-05-16T09:57:59;102171.69;;;17.86;42.05
45523;BME280;31254;51.680;5.394;2023-05-16T10:00:30;102178.72;;;17.72;42.13
45523;BME280;31254;51.680;5.394;2023-05-16T10:02:58;102184.97;;;17.83;42.33
45523;BME280;31254;51.680;5.394;2023-05-16T10:05:30;102180.75;;;17.97;41.98
45523;BME280;31254;51.680;5.394;2023-05-16T10:07:57;102181.78;;;18.04;41.89
45523;BME280;31254;51.680;5.394;2023-05-16T10:10:24;102186.78;;;17.66;41.58
45523;BME280;31254;51.680;5.394;2023-05-16T10:12:54;102194.41;;;17.72;41.51
45523;BME280;31254;51.680;5.394;2023-05-16T10:15:24;102191.47;;;18.00;40.82
45523;BME280;31254;51.680;5.394;2023-05-16T10:17:53;102178.53;;;18.08;40.60
45523;BME280;31254;51.680;5.394;2023-05-16T10:20:22;102184.06;;;17.74;41.36
45523;BME280;31254;51.680;5.394;2023-05-16T10:22:52;102183.38;;;17.46;41.93
45523;BME280;31254;51.680;5.394;2023-05-16T10:25:25;102188.91;;;17.72;42.24
45523;BME280;31254;51.680;5.394;2023-05-16T10:27:55;102165.56;;;18.01;42.05
45523;BME280;31254;51.680;5.394;2023-05-16T10:30:22;102171.19;;;18.25;42.24
45523;BME280;31254;51.680;5.394;2023-05-16T10:32:49;102179.69;;;18.49;41.38
45523;BME280;31254;51.680;5.394;2023-05-16T10:35:18;102179.41;;;18.09;41.89
45523;BME280;31254;51.680;5.394;2023-05-16T10:37:45;102197.19;;;17.72;42.34
45523;BME280;31254;51.680;5.394;2023-05-16T10:40:15;102187.13;;;17.36;42.74
45523;BME280;31254;51.680;5.394;2023-05-16T10:45:22;102195.47;;;17.18;42.46
45523;BME280;31254;51.680;5.394;2023-05-16T10:48:01;102173.66;;;17.60;42.07
45523;BME280;31254;51.680;5.394;2023-05-16T10:50:50;102176.75;;;18.42;41.46
45523;BME280;31254;51.680;5.394;2023-05-16T10:53:19;102191.19;;;18.19;42.01
45523;BME280;31254;51.680;5.394;2023-05-16T11:01:13;102202.41;;;17.31;44.25
45523;BME280;31254;51.680;5.394;2023-05-16T11:14:21;102187.88;;;17.81;42.93
45523;BME280;31254;51.680;5.394;2023-05-16T11:17:14;102155.50;;;17.23;43.07
45523;BME280;31254;51.680;5.394;2023-05-16T11:19:50;102191.81;;;17.44;43.24
45523;BME280;31254;51.680;5.394;2023-05-16T11:27:25;102209.81;;;17.04;44.62
45523;BME280;31254;51.680;5.394;2023-05-16T11:29:59;102196.81;;;16.96;44.70
45523;BME280;31254;51.680;5.394;2023-05-16T11:32:33;102188.34;;;16.90;44.10
45523;BME280;31254;51.680;5.394;2023-05-16T11:35:01;102200.09;;;17.18;43.71
45523;BME280;31254;51.680;5.394;2023-05-16T11:37:29;102161.31;;;16.93;43.33
45523;BME280;31254;51.680;5.394;2023-05-16T11:40:00;102197.50;;;17.16;43.30
45523;BME280;31254;51.680;5.394;2023-05-16T11:42:33;102205.22;;;17.13;42.65
45523;BME280;31254;51.680;5.394;2023-05-16T11:45:07;102204.25;;;16.96;42.56
45523;BME280;31254;51.680;5.394;2023-05-16T11:47:38;102198.47;;;17.07;42.81
45523;BME280;31254;51.680;5.394;2023-05-16T11:50:10;102191.94;;;17.61;42.72
45523;BME280;31254;51.680;5.394;2023-05-16T11:52:37;102191.59;;;17.90;41.78
45523;BME280;31254;51.680;5.394;2023-05-16T11:55:05;102196.28;;;18.06;41.94
45523;BME280;31254;51.680;5.394;2023-05-16T11:57:32;102199.81;;;17.82;42.31
45523;BME280;31254;51.680;5.394;2023-05-16T12:00:24;102188.81;;;17.64;42.23
45523;BME280;31254;51.680;5.394;2023-05-16T12:02:54;102201.41;;;17.58;42.52
45523;BME280;31254;51.680;5.394;2023-05-16T12:05:26;102198.28;;;17.53;42.76
45523;BME280;31254;51.680;5.394;2023-05-16T12:07:56;102191.66;;;17.72;42.62
45523;BME280;31254;51.680;5.394;2023-05-16T12:10:25;102199.56;;;17.93;42.35
45523;BME280;31254;51.680;5.394;2023-05-16T12:12:55;102207.31;;;17.98;41.87
45523;BME280;31254;51.680;5.394;2023-05-16T12:15:22;102209.00;;;17.90;41.95
45523;BME280;31254;51.680;5.394;2023-05-16T12:17:49;102206.59;;;17.87;42.14
45523;BME280;31254;51.680;5.394;2023-05-16T12:20:16;102197.66;;;17.67;42.42
45523;BME280;31254;51.680;5.394;2023-05-16T12:22:46;102213.34;;;17.67;42.49
45523;BME280;31254;51.680;5.394;2023-05-16T12:25:33;102208.53;;;17.43;42.75
45523;BME280;31254;51.680;5.394;2023-05-16T12:28:03;102213.03;;;17.44;43.19
45523;BME280;31254;51.680;5.394;2023-05-16T12:30:31;102207.41;;;17.27;43.13
45523;BME280;31254;51.680;5.394;2023-05-16T12:33:12;102203.44;;;17.30;43.33
45523;BME280;31254;51.680;5.394;2023-05-16T12:35:40;102217.59;;;17.53;42.79
45523;BME280;31254;51.680;5.394;2023-05-16T12:38:11;102216.94;;;17.59;42.51
45523;BME280;31254;51.680;5.394;2023-05-16T12:40:40;102219.28;;;17.80;42.47
45523;BME280;31254;51.680;5.394;2023-05-16T12:43:21;102227.53;;;17.98;42.47
45523;BME280;31254;51.680;5.394;2023-05-16T12:48:18;102181.59;;;17.63;42.47
45523;BME280;31254;51.680;5.394;2023-05-16T12:50:45;102222.53;;;17.76;42.78
45523;BME280;31254;51.680;5.394;2023-05-16T12:53:15;102220.22;;;17.36;43.50
45523;BME280;31254;51.680;5.394;2023-05-16T12:55:45;102230.88;;;17.13;43.88
45523;BME280;31254;51.680;5.394;2023-05-16T12:58:14;102226.28;;;17.14;44.17
45523;BME280;31254;51.680;5.394;2023-05-16T13:00:43;102235.00;;;16.73;44.43
45523;BME280;31254;51.680;5.394;2023-05-16T13:03:09;102233.25;;;16.54;44.63
45523;BME280;31254;51.680;5.394;2023-05-16T13:05:37;102220.00;;;16.40;44.97
45523;BME280;31254;51.680;5.394;2023-05-16T13:08:04;102233.00;;;16.48;44.97
45523;BME280;31254;51.680;5.394;2023-05-16T13:10:34;102224.00;;;16.45;44.90
45523;BME280;31254;51.680;5.394;2023-05-16T13:13:01;102231.97;;;16.49;45.13
45523;BME280;31254;51.680;5.394;2023-05-16T13:15:30;102217.66;;;16.81;44.24
45523;BME280;31254;51.680;5.394;2023-05-16T13:17:59;102226.44;;;16.94;44.11
45523;BME280;31254;51.680;5.394;2023-05-16T13:20:26;102219.56;;;16.80;44.48
45523;BME280;31254;51.680;5.394;2023-05-16T13:22:53;102229.06;;;16.96;44.17
45523;BME280;31254;51.680;5.394;2023-05-16T13:25:21;102236.25;;;17.15;44.03
45523;BME280;31254;51.680;5.394;2023-05-16T13:27:50;102226.69;;;17.01;43.83
45523;BME280;31254;51.680;5.394;2023-05-16T13:30:16;102231.75;;;16.78;44.20
45523;BME280;31254;51.680;5.394;2023-05-16T13:32:43;102236.00;;;16.72;44.52
45523;BME280;31254;51.680;5.394;2023-05-16T13:35:12;102222.78;;;16.58;44.93